Time;durP1;ratioP1;P1;durP2;ratioP2;P2;SDS_P1;SDS_P2;PMS_P1;PMS_P2;Temp;Humidity;BMP_temperature;BMP_pressure;BME280_temperature;BME280_humidity;BME280_pressure;Samples;Min_cycle;Max_cycle;Signal;HPM_P1;HPM_P2
2023/09/21 00:01:03;;;;;;;7.57;3.65;;;;;;;18.03;68.40;99484.56;6090573;23;20353;-92
2023/09/21 00:03:32;;;;;;;10.57;3.75;;;;;;;18.06;68.19;99480.41;6076369;23;20019;-93
2023/09/21 00:05:58;;;;;;;8.98;3.63;;;;;;;17.94;68.34;99472.84;6074859;23;20099;-93
2023/09/21 00:08:24;;;;;;;10.98;3.65;;;;;;;18.02;68.32;99485.69;6051884;23;20006;-93
2023/09/21 00:10:52;;;;;;;7.53;3.80;;;;;;;18.01;68.25;99478.63;6099982;23;20007;-93
2023/09/21 00:13:20;;;;;;;10.93;3.50;;;;;;;18.08;68.64;99494.53;6051557;23;20011;-92
2023/09/21 00:15:50;;;;;;;8.55;3.40;;;;;;;18.13;68.66;99491.66;6114935;23;20020;-94
2023/09/21 00:18:15;;;;;;;7.13;3.40;;;;;;;17.98;68.64;99474.59;6140475;23;20107;-92
2023/09/21 00:20:52;;;;;;;7.82;3.65;;;;;;;17.90;68.85;99469.13;6141048;23;20018;-95
2023/09/21 00:23:18;;;;;;;6.03;3.20;;;;;;;17.93;68.51;99472.03;6117756;23;19993;-92
2023/09/21 00:25:44;;;;;;;5.35;3.03;;;;;;;17.98;68.89;99488.22;6114443;23;20448;-93
2023/09/21 00:28:13;;;;;;;5.70;3.38;;;;;;;17.93;69.16;99487.59;6141488;23;19997;-92
2023/09/21 00:30:40;;;;;;;9.55;3.70;;;;;;;17.84;69.19;99479.34;6141211;23;19996;-93
2023/09/21 00:33:08;;;;;;;7.60;3.53;;;;;;;17.85;68.98;99483.69;6140308;23;20005;-93
2023/09/21 00:35:39;;;;;;;7.78;4.20;;;;;;;17.83;69.26;99480.50;6116352;23;20048;-94
2023/09/21 00:38:14;;;;;;;5.88;3.20;;;;;;;17.82;69.10;99476.09;6116637;23;20074;-93
2023/09/21 00:40:39;;;;;;;7.53;3.45;;;;;;;17.68;69.33;99461.78;6116349;23;20005;-93
2023/09/21 00:43:06;;;;;;;6.22;3.28;;;;;;;17.82;69.46;99487.00;6114926;23;20017;-92
2023/09/21 00:45:37;;;;;;;6.32;3.28;;;;;;;17.81;69.31;99481.91;6138329;23;20028;-93
2023/09/21 00:48:12;;;;;;;5.72;3.10;;;;;;;17.70;69.28;99465.00;6140674;23;20416;-93
2023/09/21 00:50:38;;;;;;;7.25;3.33;;;;;;;17.61;69.77;99445.91;6119151;23;20001;-93
2023/09/21 00:53:07;;;;;;;6.93;3.08;;;;;;;17.65;69.51;99459.72;6116194;23;20327;-92
2023/09/21 00:55:39;;;;;;;6.88;3.17;;;;;;;17.66;69.71;99461.28;6141293;23;20004;-93
2023/09/21 00:58:23;;;;;;;4.72;2.90;;;;;;;17.75;69.52;99464.88;6081216;23;20077;-92
2023/09/21 01:00:50;;;;;;;11.77;3.70;;;;;;;17.77;69.69;99478.97;6075748;23;20006;-93
2023/09/21 01:03:17;;;;;;;12.88;3.30;;;;;;;17.74;69.74;99480.44;6051186;23;20006;-93
2023/09/21 01:05:48;;;;;;;5.78;3.08;;;;;;;17.69;69.78;99479.75;6076276;23;20441;-93
2023/09/21 01:08:18;;;;;;;5.85;3.20;;;;;;;17.61;69.65;99470.41;6051481;23;20002;-92
2023/09/21 01:10:48;;;;;;;6.50;2.92;;;;;;;17.61;69.83;99475.84;6076375;23;20070;-94
2023/09/21 01:13:15;;;;;;;7.13;3.38;;;;;;;17.60;70.09;99477.00;6074992;23;20098;-92
2023/09/21 01:15:47;;;;;;;5.50;3.20;;;;;;;17.64;69.78;99486.13;6052056;23;20006;-93
2023/09/21 01:18:16;;;;;;;21.38;4.25;;;;;;;17.67;70.28;99482.78;6078221;23;20003;-93
2023/09/21 01:20:48;;;;;;;6.80;3.17;;;;;;;17.55;70.13;99467.00;6079238;23;20002;-92
2023/09/21 01:23:18;;;;;;;7.70;3.65;;;;;;;17.56;69.98;99465.91;6076840;23;20029;-92
2023/09/21 01:25:50;;;;;;;7.93;3.28;;;;;;;17.57;70.13;99469.44;6077937;23;20049;-94
2023/09/21 01:28:20;;;;;;;;;;;;;;;17.67;69.86;99477.34;6102280;23;20026;-94
2023/09/21 01:30:48;;;;;;;7.45;3.75;;;;;;;17.54;70.11;99465.41;6077994;23;19945;-94
2023/09/21 01:33:15;;;;;;;5.55;3.13;;;;;;;17.45;70.02;99450.97;6053910;23;20146;-92
2023/09/21 01:35:45;;;;;;;9.20;3.53;;;;;;;17.47;69.78;99456.09;6054321;23;20058;-93
2023/09/21 01:38:13;;;;;;;8.60;3.30;;;;;;;17.42;70.04;99448.06;6078587;23;20010;-92
2023/09/21 01:40:40;;;;;;;7.50;3.47;;;;;;;17.41;70.08;99463.59;6102756;23;20042;-93
2023/09/21 01:43:07;;;;;;;6.63;3.30;;;;;;;17.39;70.10;99471.28;6077791;23;20425;-93
2023/09/21 01:45:34;;;;;;;5.05;3.20;;;;;;;17.39;70.16;99460.38;6053667;23;20002;-92
2023/09/21 01:48:01;;;;;;;6.38;3.58;;;;;;;17.37;70.16;99455.25;6072771;23;20012;-93
2023/09/21 01:50:29;;;;;;;6.70;3.45;;;;;;;17.33;70.26;99458.91;6115467;23;20005;-94
2023/09/21 01:52:57;;;;;;;6.35;3.33;;;;;;;17.31;70.21;99461.94;6142973;23;19997;-93
2023/09/21 01:55:23;;;;;;;7.60;3.75;;;;;;;17.17;70.57;99437.50;6142136;23;20001;-94
2023/09/21 01:57:48;;;;;;;9.73;4.80;;;;;;;17.22;70.65;99443.94;6116896;23;20344;-93
2023/09/21 02:00:27;;;;;;;8.68;4.38;;;;;;;17.21;70.69;99448.56;6117968;23;19997;-93
2023/09/21 02:02:53;;;;;;;9.73;4.03;;;;;;;17.25;70.61;99446.06;6148294;23;20001;-92
2023/09/21 02:05:19;;;;;;;9.02;3.85;;;;;;;17.21;70.67;99445.06;6086533;23;20072;-93
2023/09/21 02:07:44;;;;;;;7.28;3.70;;;;;;;17.28;70.93;99456.31;6086529;23;20001;-93
2023/09/21 02:10:11;;;;;;;6.22;3.80;;;;;;;17.25;70.80;99459.66;6087985;23;20005;-93
2023/09/21 02:12:38;;;;;;;7.90;3.92;;;;;;;17.07;70.71;99439.69;6112517;23;20029;-93
2023/09/21 02:15:12;;;;;;;7.93;3.40;;;;;;;17.17;70.88;99459.28;6135838;23;20037;-93
2023/09/21 02:17:41;;;;;;;8.35;3.53;;;;;;;17.06;70.92;99438.88;6089851;23;20001;-92
2023/09/21 02:20:20;;;;;;;10.10;3.50;;;;;;;17.04;70.89;99438.38;6089344;23;19994;-93
2023/09/21 02:22:46;;;;;;;8.77;3.75;;;;;;;17.06;70.82;99444.31;6093245;23;20002;-94
2023/09/21 02:25:15;;;;;;;7.68;3.70;;;;;;;17.05;70.99;99439.19;6136242;23;20001;-93
2023/09/21 02:27:41;;;;;;;7.00;3.40;;;;;;;17.00;70.80;99431.97;6088711;23;20537;-93
2023/09/21 02:30:16;;;;;;;10.35;3.75;;;;;;;16.91;71.33;99426.47;6087842;23;20029;-93
2023/09/21 02:32:42;;;;;;;7.88;3.88;;;;;;;16.94;70.81;99433.19;6091164;23;20005;-94
2023/09/21 02:35:14;;;;;;;7.03;3.97;;;;;;;17.01;71.43;99446.34;6088916;23;20061;-93
2023/09/21 02:37:44;;;;;;;;;;;;;;;16.98;71.14;99445.06;6136264;23;20157;-94
2023/09/21 02:40:14;;;;;;;7.50;5.10;;;;;;;16.89;71.22;99433.31;6136528;23;19916;-93
2023/09/21 02:42:41;;;;;;;9.82;5.25;;;;;;;16.84;71.67;99439.69;6137803;23;20002;-93
2023/09/21 02:45:10;;;;;;;9.77;5.22;;;;;;;16.94;71.69;99444.88;6136444;23;20002;-94
2023/09/21 02:47:35;;;;;;;9.25;4.75;;;;;;;16.85;71.85;99427.69;6135864;23;20009;-91
2023/09/21 02:50:09;;;;;;;10.48;4.40;;;;;;;16.82;71.76;99430.22;6086019;23;20073;-92
2023/09/21 02:52:36;;;;;;;9.00;4.60;;;;;;;16.78;71.77;99424.56;6089918;23;19997;-92
2023/09/21 02:55:01;;;;;;;12.85;4.78;;;;;;;16.90;71.79;99446.59;6087532;23;20049;-92
2023/09/21 02:57:28;;;;;;;7.90;4.20;;;;;;;16.81;72.35;99432.16;6135812;23;20071;-91
2023/09/21 02:59:53;;;;;;;5.70;3.78;;;;;;;16.90;72.12;99427.56;6136477;23;20004;-92
2023/09/21 03:02:18;;;;;;;6.93;3.42;;;;;;;16.89;71.85;99447.72;6087046;23;20002;-92
2023/09/21 03:04:46;;;;;;;7.85;3.80;;;;;;;16.83;71.81;99427.22;6101653;23;20017;-92
2023/09/21 03:07:12;;;;;;;6.20;3.50;;;;;;;16.86;72.00;99437.44;6111184;23;19997;-92
2023/09/21 03:09:38;;;;;;;7.55;3.78;;;;;;;16.90;71.72;99427.56;6135582;23;20012;-91
2023/09/21 03:12:04;;;;;;;4.50;3.15;;;;;;;17.00;71.86;99436.59;6110696;23;20325;-92
2023/09/21 03:14:30;;;;;;;7.97;3.50;;;;;;;16.94;71.51;99425.03;6160413;23;20460;-92
2023/09/21 03:16:57;;;;;;;9.20;3.47;;;;;;;16.82;71.88;99406.56;6111764;23;20002;-91
2023/09/21 03:19:24;;;;;;;6.50;3.45;;;;;;;16.93;71.46;99434.28;6130079;23;20493;-92
2023/09/21 03:21:50;;;;;;;13.98;4.43;;;;;;;16.84;71.76;99425.28;6087066;23;19997;-92
2023/09/21 03:24:17;;;;;;;9.07;4.15;;;;;;;16.84;71.62;99433.44;6110796;23;20009;-92
2023/09/21 03:26:42;;;;;;;9.07;4.55;;;;;;;16.84;71.43;99436.97;6111300;23;20012;-92
2023/09/21 03:29:12;;;;;;;8.32;4.80;;;;;;;16.70;71.68;99428.81;6109630;23;20005;-91
2023/09/21 03:31:38;;;;;;;8.57;4.50;;;;;;;16.78;71.64;99443.59;6110431;23;20017;-92
2023/09/21 03:34:05;;;;;;;9.23;4.05;;;;;;;16.75;71.86;99439.59;6110115;23;19998;-92
2023/09/21 03:36:33;;;;;;;8.00;3.83;;;;;;;16.71;71.94;99441.31;6111853;23;20005;-92
2023/09/21 03:38:59;;;;;;;8.30;4.00;;;;;;;16.63;71.62;99442.03;6109769;23;20016;-92
2023/09/21 03:41:24;;;;;;;7.20;4.70;;;;;;;16.62;71.46;99435.00;6108896;23;19997;-92
2023/09/21 03:43:50;;;;;;;8.98;4.25;;;;;;;16.46;71.68;99412.78;6110742;23;20060;-93
2023/09/21 03:46:16;;;;;;;7.78;4.28;;;;;;;16.51;72.06;99423.53;6109749;23;19989;-92
2023/09/21 03:48:43;;;;;;;8.70;4.65;;;;;;;16.59;71.85;99438.31;6109768;23;20436;-93
2023/09/21 03:51:08;;;;;;;11.07;4.78;;;;;;;16.51;71.86;99428.19;6108696;23;20361;-91
2023/09/21 03:53:33;;;;;;;12.05;4.47;;;;;;;16.52;72.13;99429.81;6110043;23;20060;-91
2023/09/21 03:56:01;;;;;;;8.68;5.60;;;;;;;16.51;72.36;99422.75;6112984;23;20002;-91
2023/09/21 03:58:28;;;;;;;7.88;4.32;;;;;;;16.54;72.50;99438.47;6111727;23;20420;-92
2023/09/21 04:00:55;;;;;;;7.10;4.10;;;;;;;16.53;72.25;99434.91;6109812;23;20054;-91
2023/09/21 04:03:20;;;;;;;9.45;4.35;;;;;;;16.56;72.13;99434.31;6113371;23;20040;-93
2023/09/21 04:05:46;;;;;;;9.30;4.20;;;;;;;16.60;72.10;99441.84;6117172;23;20332;-93
2023/09/21 04:08:15;;;;;;;8.77;4.05;;;;;;;16.54;71.97;99433.81;6140896;23;20024;-92
2023/09/21 04:10:49;;;;;;;16.50;4.80;;;;;;;16.53;72.10;99424.03;6113719;23;20083;-93
2023/09/21 04:13:15;;;;;;;13.80;4.43;;;;;;;16.51;72.27;99434.41;6114872;23;20007;-92
2023/09/21 04:15:44;;;;;;;7.57;4.15;;;;;;;16.38;72.38;99437.97;6117310;23;20001;-94
2023/09/21 04:18:12;;;;;;;9.10;4.47;;;;;;;16.31;73.14;99448.44;6116671;23;20001;-91
2023/09/21 04:20:40;;;;;;;9.15;4.47;;;;;;;16.11;73.24;99430.69;6115366;23;19997;-93
2023/09/21 04:23:06;;;;;;;8.07;4.38;;;;;;;16.04;73.83;99430.28;6117257;23;20005;-94
2023/09/21 04:25:32;;;;;;;23.52;5.32;;;;;;;16.23;73.43;99443.72;6141141;23;20004;-94
2023/09/21 04:27:58;;;;;;;13.35;5.82;;;;;;;16.04;74.28;99430.28;6116501;23;20000;-93
2023/09/21 04:30:24;;;;;;;10.38;4.55;;;;;;;16.16;73.14;99425.97;6142293;23;20011;-93
2023/09/21 04:32:50;;;;;;;13.30;4.45;;;;;;;16.16;73.65;99427.84;6116009;23;20001;-93
2023/09/21 04:35:19;;;;;;;12.07;5.50;;;;;;;16.11;73.74;99428.75;6142916;23;20012;-92
2023/09/21 04:37:47;;;;;;;14.25;5.28;;;;;;;16.10;73.59;99427.16;6118814;23;20005;-93
2023/09/21 04:40:13;;;;;;;8.48;5.20;;;;;;;16.26;73.47;99426.84;6140369;23;20024;-94
2023/09/21 04:42:42;;;;;;;16.30;5.35;;;;;;;16.38;73.22;99445.34;6118973;23;20001;-96
2023/09/21 04:45:11;;;;;;;18.60;5.20;;;;;;;16.43;72.73;99431.63;6118706;23;20012;-94
2023/09/21 04:47:37;;;;;;;11.77;5.30;;;;;;;16.59;72.70;99453.84;6120498;23;20004;-94
2023/09/21 04:50:03;;;;;;;15.18;5.47;;;;;;;16.59;72.81;99451.13;6145518;23;20005;-96
2023/09/21 04:52:31;;;;;;;13.50;6.30;;;;;;;16.64;72.41;99446.34;6118494;23;20001;-93
2023/09/21 04:54:59;;;;;;;18.05;5.75;;;;;;;16.73;72.54;99454.59;6122477;23;20005;-95
2023/09/21 04:57:30;;;;;;;17.10;5.68;;;;;;;16.70;72.12;99449.78;6120894;23;20031;-94
2023/09/21 05:00:25;;;;;;;15.70;5.93;;;;;;;16.73;71.97;99435.56;6147081;23;20012;-92
2023/09/21 05:02:51;;;;;;;12.63;5.75;;;;;;;16.78;71.68;99433.50;6150011;23;20451;-94
2023/09/21 05:08:44;;;;;;;17.63;7.15;;;;;;;16.95;71.07;99434.78;6172029;23;20004;-96
2023/09/21 05:11:10;;;;;;;13.40;8.88;;;;;;;17.19;71.08;99448.09;6117792;23;20004;-91
2023/09/21 05:13:36;;;;;;;15.02;7.35;;;;;;;17.06;70.77;99417.13;6113832;23;20001;-93
2023/09/21 05:16:12;;;;;;;18.15;8.10;;;;;;;17.27;70.46;99422.84;6115341;23;20007;-91
2023/09/21 05:18:38;;;;;;;12.50;6.30;;;;;;;17.36;70.20;99418.25;6134779;23;20451;-90
2023/09/21 05:21:07;;;;;;;16.48;8.02;;;;;;;17.51;69.72;99424.41;6132019;23;19997;-90
2023/09/21 05:23:45;;;;;;;17.25;6.55;;;;;;;17.68;69.18;99440.00;6135981;23;20001;-91
2023/09/21 05:26:11;;;;;;;21.42;7.53;;;;;;;17.71;68.83;99431.22;6162334;23;20052;-90
2023/09/21 05:28:36;;;;;;;14.93;7.53;;;;;;;17.85;68.69;99431.16;6138283;23;20420;-91
2023/09/21 05:31:02;;;;;;;17.10;7.30;;;;;;;17.96;68.71;99446.06;6139059;23;20014;-90
2023/09/21 05:36:43;;;;;;;16.75;6.78;;;;;;;18.24;67.93;99456.72;6208701;23;20027;-95
2023/09/21 05:39:15;;;;;;;12.45;5.70;;;;;;;18.18;67.50;99432.34;6169789;23;20033;-92
2023/09/21 05:41:49;;;;;;;8.80;4.47;;;;;;;18.29;66.61;99435.56;6170032;23;20008;-91
2023/09/21 05:44:14;;;;;;;12.77;4.90;;;;;;;18.38;66.70;99450.00;6143161;23;20001;-90
2023/09/21 05:46:43;;;;;;;11.30;4.20;;;;;;;18.23;65.56;99415.03;6118823;23;20088;-92
2023/09/21 05:49:22;;;;;;;7.80;4.45;;;;;;;18.53;65.19;99456.13;6144944;23;20336;-91
2023/09/21 05:51:49;;;;;;;9.60;4.30;;;;;;;18.49;65.39;99438.78;6123600;23;20008;-92
2023/09/21 05:54:53;;;;;;;9.32;4.63;;;;;;;18.67;65.50;99455.97;6141755;23;20005;-93
2023/09/21 05:57:18;;;;;;;13.88;5.78;;;;;;;18.68;65.43;99441.25;6142185;23;20001;-92
2023/09/21 05:59:47;;;;;;;12.40;4.93;;;;;;;18.56;65.50;99433.69;6141196;23;20000;-93
2023/09/21 06:02:15;;;;;;;11.05;4.97;;;;;;;18.51;65.67;99436.56;6115606;23;20088;-92
2023/09/21 06:04:41;;;;;;;16.17;5.18;;;;;;;18.63;65.49;99434.00;6115750;23;19997;-92
2023/09/21 06:07:14;;;;;;;9.10;5.10;;;;;;;18.80;65.45;99446.06;6139116;23;20028;-89
2023/09/21 06:09:43;;;;;;;13.75;5.95;;;;;;;18.79;65.06;99431.63;6120193;23;20016;-94
2023/09/21 06:12:11;;;;;;;13.15;5.97;;;;;;;18.88;64.95;99437.06;6118965;23;20397;-94
2023/09/21 06:14:37;;;;;;;13.82;5.35;;;;;;;18.96;64.97;99434.31;6120342;23;20001;-92
2023/09/21 06:17:13;;;;;;;11.98;5.93;;;;;;;19.03;64.75;99433.03;6116523;23;20001;-92
2023/09/21 06:19:41;;;;;;;11.85;5.40;;;;;;;19.23;64.36;99440.56;6121568;23;20001;-94
2023/09/21 06:22:06;;;;;;;11.00;5.38;;;;;;;19.15;63.64;99423.09;6119591;23;20008;-90
2023/09/21 06:24:34;;;;;;;12.80;4.80;;;;;;;19.31;63.31;99426.06;6117676;23;20005;-92
2023/09/21 06:27:02;;;;;;;9.57;6.93;;;;;;;19.47;63.14;99429.09;6120828;23;20072;-92
2023/09/21 06:29:28;;;;;;;10.48;5.05;;;;;;;19.69;62.38;99449.88;6117735;23;20000;-91
2023/09/21 06:31:55;;;;;;;29.73;7.00;;;;;;;19.61;61.74;99408.94;6115385;23;20031;-93
2023/09/21 06:34:24;;;;;;;12.00;6.13;;;;;;;19.72;59.98;99429.34;6110148;23;20033;-92
2023/09/21 06:36:52;;;;;;;19.27;11.15;;;;;;;19.89;59.86;99423.78;6092227;23;20009;-94
2023/09/21 06:39:21;;;;;;;65.15;37.63;;;;;;;19.99;60.07;99415.22;6095235;23;20005;-94
2023/09/21 06:41:55;;;;;;;8.65;6.00;;;;;;;20.22;59.13;99423.13;6102831;23;20005;-94
2023/09/21 06:44:21;;;;;;;9.88;4.78;;;;;;;20.31;58.10;99418.41;6129236;23;20029;-95
2023/09/21 06:46:47;;;;;;;7.95;4.80;;;;;;;20.57;58.01;99433.84;6097503;23;20009;-96
2023/09/21 06:49:12;;;;;;;11.43;4.85;;;;;;;20.76;57.57;99444.31;6097161;23;20021;-95
2023/09/21 06:51:38;;;;;;;8.00;4.32;;;;;;;20.85;57.60;99425.88;6098683;23;20424;-93
2023/09/21 06:54:03;;;;;;;6.85;3.70;;;;;;;20.88;55.94;99411.53;6093933;23;20077;-94
2023/09/21 06:56:32;;;;;;;7.53;4.30;;;;;;;21.10;55.75;99423.25;6093692;23;20092;-92
2023/09/21 06:59:06;;;;;;;7.15;4.10;;;;;;;21.49;55.18;99435.56;6096780;23;20374;-92
2023/09/21 07:01:33;;;;;;;8.43;4.40;;;;;;;21.71;55.60;99423.41;6122144;23;20059;-93
2023/09/21 07:04:17;;;;;;;11.65;5.35;;;;;;;21.81;55.65;99408.44;6113716;23;20428;-92
2023/09/21 07:06:43;;;;;;;7.60;3.85;;;;;;;22.18;54.85;99427.59;6093634;23;20017;-93
2023/09/21 07:09:12;;;;;;;7.57;4.53;;;;;;;22.31;53.82;99420.19;6091195;23;20005;-92
2023/09/21 07:11:37;;;;;;;6.47;3.70;;;;;;;22.59;52.48;99434.72;6090130;23;20436;-95
2023/09/21 07:14:28;;;;;;;10.70;4.45;;;;;;;22.73;52.12;99442.59;6092924;23;20010;-94
2023/09/21 07:16:56;;;;;;;7.22;4.07;;;;;;;22.81;51.87;99424.38;6117608;23;20432;-92
2023/09/21 07:19:22;;;;;;;7.93;4.75;;;;;;;22.90;52.18;99408.56;6092158;23;20004;-93
2023/09/21 07:21:48;;;;;;;8.38;3.85;;;;;;;23.15;52.03;99436.72;6090490;23;20001;-91
2023/09/21 07:24:20;;;;;;;14.32;7.57;;;;;;;23.33;51.89;99436.41;6114894;23;20001;-91
2023/09/21 07:27:00;;;;;;;32.30;22.77;;;;;;;23.42;50.90;99437.03;6093740;23;20032;-93
2023/09/21 07:29:41;;;;;;;19.27;12.93;;;;;;;23.48;50.51;99404.59;6094970;23;20412;-92
2023/09/21 07:32:18;;;;;;;;;;;;;;;;;;;;;
2023/09/21 07:34:49;;;;;;;7.88;3.72;;;;;;;23.81;50.30;99409.75;6143938;23;19932;-95
2023/09/21 07:37:45;;;;;;;;;;;;;;;;;;;;;
2023/09/21 07:40:15;;;;;;;7.03;3.35;;;;;;;24.06;49.67;99407.59;6126574;23;20040;-96
2023/09/21 07:43:05;;;;;;;5.13;3.10;;;;;;;24.16;48.70;99407.03;6115778;23;20004;-94
2023/09/21 07:45:32;;;;;;;28.45;17.38;;;;;;;24.34;48.57;99420.38;6091643;23;20002;-93
2023/09/21 07:47:58;;;;;;;21.95;13.80;;;;;;;24.40;48.66;99422.50;6061012;23;20034;-94
2023/09/21 07:50:43;;;;;;;21.15;14.23;;;;;;;24.44;49.02;99419.03;6088033;23;20364;-95
2023/09/21 07:56:43;;;;;;;20.17;11.35;;;;;;;24.41;49.50;99424.09;6087975;23;20006;-94
2023/09/21 07:59:13;;;;;;;17.35;7.15;;;;;;;24.46;49.88;99422.22;6071613;23;20013;-95
2023/09/21 08:01:40;;;;;;;7.18;4.32;;;;;;;24.51;50.10;99419.19;6036098;23;20002;-94
2023/09/21 08:04:10;;;;;;;6.13;3.63;;;;;;;24.39;49.23;99387.88;6073542;23;20006;-94
2023/09/21 08:07:05;;;;;;;7.05;4.20;;;;;;;24.50;48.54;99401.09;6084733;23;20002;-93
2023/09/21 08:09:56;;;;;;;9.15;4.85;;;;;;;24.69;48.11;99419.56;6085065;23;20014;-94
2023/09/21 08:12:27;;;;;;;6.70;3.28;;;;;;;24.84;47.35;99407.69;6032517;23;20007;-93
2023/09/21 08:15:00;;;;;;;3.90;3.08;;;;;;;24.78;47.12;99379.66;6007318;23;20019;-94
2023/09/21 08:17:29;;;;;;;9.48;3.90;;;;;;;24.93;46.91;99379.91;6053094;23;20075;-91
2023/09/21 08:20:15;;;;;;;7.72;5.30;;;;;;;25.19;46.93;99393.78;6050202;23;20065;-94
2023/09/21 08:22:47;;;;;;;6.35;3.63;;;;;;;25.30;46.76;99401.47;6071326;23;20089;-95
2023/09/21 08:25:17;;;;;;;7.75;4.20;;;;;;;25.44;46.84;99401.69;6043228;23;20014;-94
2023/09/21 08:27:43;;;;;;;8.88;3.75;;;;;;;25.49;45.98;99386.84;6058503;23;20458;-94
2023/09/21 08:30:15;;;;;;;8.00;2.88;;;;;;;25.57;44.77;99388.53;6086047;23;20508;-95
2023/09/21 08:32:47;;;;;;;5.30;3.20;;;;;;;25.66;45.33;99380.81;6086616;23;20013;-94
2023/09/21 08:35:16;;;;;;;7.38;3.10;;;;;;;25.88;45.01;99389.41;6085501;23;20018;-93
2023/09/21 08:37:51;;;;;;;7.68;2.75;;;;;;;25.99;44.73;99391.19;6136757;23;20009;-93
2023/09/21 08:40:28;;;;;;;6.95;2.78;;;;;;;25.98;44.37;99367.53;6151492;23;20069;-92
2023/09/21 08:43:04;;;;;;;6.03;2.90;;;;;;;26.29;43.41;99384.88;6135416;23;20009;-92
2023/09/21 08:45:40;;;;;;;4.55;3.47;;;;;;;26.42;43.13;99383.50;6178407;23;20001;-92
2023/09/21 08:48:20;;;;;;;;;;;;;;;;;;;;;
2023/09/21 08:53:41;;;;;;;9.50;3.38;;;;;;;26.89;43.18;99386.03;6143385;23;20035;-93
2023/09/21 08:56:13;;;;;;;4.55;3.05;;;;;;;26.96;42.06;99364.00;6145737;23;20005;-91
2023/09/21 08:58:41;;;;;;;7.00;3.38;;;;;;;27.24;42.12;99388.38;6144911;23;20089;-92
2023/09/21 09:01:14;;;;;;;4.40;2.90;;;;;;;27.30;42.14;99375.03;6154110;23;20012;-94
2023/09/21 09:03:40;;;;;;;8.35;4.38;;;;;;;27.44;42.22;99364.09;6144465;23;20001;-94
2023/09/21 09:06:12;;;;;;;13.88;4.50;;;;;;;27.55;41.12;99376.00;6146784;23;20013;-94
2023/09/21 09:08:43;;;;;;;12.40;8.95;;;;;;;27.57;40.49;99367.34;6145892;23;20005;-94
2023/09/21 09:11:54;;;;;;;15.48;9.10;;;;;;;27.68;39.95;99372.94;6124632;23;20462;-93
2023/09/21 09:14:30;;;;;;;69.65;47.42;;;;;;;27.84;39.39;99383.75;6024231;23;20003;-92
2023/09/21 09:17:01;;;;;;;7.72;4.38;;;;;;;27.86;38.28;99378.63;6001197;23;19999;-92
2023/09/21 09:19:37;;;;;;;397.08;275.27;;;;;;;27.87;38.45;99361.66;6115319;23;20005;-90
2023/09/21 09:25:51;;;;;;;;;;;;;;;28.18;39.00;99379.66;6198964;23;20387;-94
2023/09/21 09:28:18;;;;;;;18.05;10.05;;;;;;;28.06;38.70;99355.06;6193278;23;19904;-94
2023/09/21 09:30:45;;;;;;;8.68;5.00;;;;;;;27.98;38.07;99361.72;6145777;23;20097;-92
2023/09/21 09:33:37;;;;;;;7.38;3.50;;;;;;;28.13;37.99;99362.59;6122191;23;20005;-93
2023/09/21 09:36:27;;;;;;;7.75;3.78;;;;;;;28.09;38.85;99343.19;6173017;23;20017;-94
2023/09/21 09:39:13;;;;;;;6.82;3.72;;;;;;;28.33;37.95;99372.19;6092490;23;20006;-93
2023/09/21 09:41:50;;;;;;;6.93;3.35;;;;;;;28.22;38.07;99351.94;6041970;23;20033;-92
2023/09/21 09:44:21;;;;;;;5.70;3.78;;;;;;;28.21;38.71;99347.59;6085094;23;20006;-90
2023/09/21 09:47:01;;;;;;;8.77;3.22;;;;;;;28.22;38.29;99365.78;6036743;23;20204;-94
2023/09/21 09:49:51;;;;;;;;;;;;;;;;;;;;;
2023/09/21 09:52:43;;;;;;;5.53;3.05;;;;;;;28.40;38.53;99355.59;6086894;23;20033;-93
2023/09/21 09:55:14;;;;;;;11.57;3.60;;;;;;;28.34;38.36;99346.06;6078703;23;20006;-91
2023/09/21 09:57:48;;;;;;;5.70;3.08;;;;;;;28.52;38.26;99373.09;6084841;23;20065;-95
2023/09/21 10:00:47;;;;;;;4.95;2.80;;;;;;;28.57;37.58;99378.25;6006842;23;20040;-93
2023/09/21 10:03:40;;;;;;;5.60;2.95;;;;;;;28.61;37.71;99363.22;6045153;23;20007;-95
2023/09/21 10:06:15;;;;;;;6.35;2.95;;;;;;;28.57;37.33;99365.19;6032207;23;20003;-93
2023/09/21 10:08:51;;;;;;;6.72;2.85;;;;;;;28.64;37.38;99344.22;6059274;23;20007;-94
2023/09/21 10:11:49;;;;;;;8.75;3.25;;;;;;;28.72;37.39;99345.81;6003871;23;20012;-93
2023/09/21 10:14:18;;;;;;;7.65;3.00;;;;;;;28.71;37.16;99358.91;5958803;24;20008;-94
2023/09/21 10:17:38;;;;;;;5.32;2.90;;;;;;;28.63;37.29;99332.34;6159223;23;20073;-95
2023/09/21 10:20:24;;;;;;;5.95;2.92;;;;;;;28.74;36.59;99335.16;6069496;23;20014;-93
2023/09/21 10:23:09;;;;;;;7.90;3.38;;;;;;;28.84;36.38;99341.91;6097097;23;20006;-96
2023/09/21 10:29:15;;;;;;;24.20;4.05;;;;;;;28.71;35.56;99317.34;6066474;23;20018;-93
2023/09/21 10:31:56;;;;;;;4.38;2.47;;;;;;;28.76;36.30;99319.75;6043262;23;20013;-91
2023/09/21 10:34:54;;;;;;;15.82;3.00;;;;;;;28.74;36.19;99312.97;6061292;23;20058;-92
2023/09/21 10:37:55;;;;;;;5.30;2.78;;;;;;;28.84;36.37;99317.75;6082719;23;20002;-92
2023/09/21 10:50:33;;;;;;;;;;;;;;;;;;;;;
2023/09/21 10:53:44;;;;;;;4.50;2.38;;;;;;;29.01;34.83;99285.69;6058383;23;20003;-92
2023/09/21 10:59:17;;;;;;;9.23;3.50;;;;;;;29.53;35.95;99310.25;6024196;23;20027;-92
2023/09/21 11:01:49;;;;;;;7.75;3.20;;;;;;;29.61;35.74;99282.13;5998240;23;20000;-94
2023/09/21 11:04:17;;;;;;;8.65;3.92;;;;;;;29.85;34.84;99290.81;6009186;23;20497;-93
2023/09/21 11:06:50;;;;;;;8.85;3.30;;;;;;;29.93;35.09;99284.03;6003288;23;20003;-94
2023/09/21 11:09:23;;;;;;;8.32;3.63;;;;;;;30.08;34.36;99278.44;6037166;23;20369;-95
2023/09/21 11:11:58;;;;;;;6.70;3.83;;;;;;;30.16;33.85;99293.88;5982403;23;20007;-94
2023/09/21 11:14:41;;;;;;;9.77;3.03;;;;;;;30.17;33.68;99287.94;6030401;23;20019;-94
2023/09/21 11:17:33;;;;;;;6.07;3.28;;;;;;;30.28;34.25;99278.72;6015658;23;19990;-93
2023/09/21 11:21:12;;;;;;;6.93;3.58;;;;;;;30.45;33.53;99288.22;5995716;23;20031;-94
2023/09/21 11:24:08;;;;;;;7.18;3.40;;;;;;;30.45;32.57;99260.44;5993454;24;20068;-93
2023/09/21 11:27:09;;;;;;;11.30;3.10;;;;;;;30.52;31.97;99271.50;5950754;24;20008;-94
2023/09/21 11:29:35;;;;;;;11.13;4.87;;;;;;;30.48;32.80;99254.84;5945783;24;20483;-94
2023/09/21 11:32:01;;;;;;;7.95;3.30;;;;;;;30.62;32.68;99270.63;5950129;24;20004;-93
2023/09/21 11:34:29;;;;;;;7.65;2.95;;;;;;;30.68;32.41;99276.56;5926121;24;20543;-94
2023/09/21 11:37:01;;;;;;;6.35;3.70;;;;;;;30.74;32.10;99272.94;5949655;24;20048;-91
2023/09/21 11:39:30;;;;;;;7.07;3.25;;;;;;;30.71;32.25;99261.84;5947012;24;20012;-91
2023/09/21 11:41:57;;;;;;;5.25;3.63;;;;;;;30.85;31.96;99280.41;5945330;24;20012;-91
2023/09/21 11:44:31;;;;;;;10.98;6.45;;;;;;;30.71;32.05;99257.06;5944978;24;20037;-92
2023/09/21 11:47:23;;;;;;;4.45;3.40;;;;;;;30.64;31.59;99246.00;5924118;24;20044;-93
2023/09/21 11:49:55;;;;;;;6.20;4.60;;;;;;;30.68;31.66;99249.56;5930299;24;20023;-93
2023/09/21 11:53:12;;;;;;;11.00;3.10;;;;;;;30.89;31.95;99264.53;5944125;24;20012;-95
2023/09/21 11:56:26;;;;;;;27.67;23.15;;;;;;;30.93;31.58;99265.28;5877743;24;20030;-91
2023/09/21 11:59:06;;;;;;;11.65;4.50;;;;;;;30.82;32.33;99246.66;5961954;24;20009;-92
2023/09/21 12:05:06;;;;;;;8.02;3.58;;;;;;;30.73;32.48;99223.31;5837960;24;20020;-92
2023/09/21 12:07:35;;;;;;;11.63;4.40;;;;;;;30.77;32.30;99241.53;5890613;24;20009;-94
2023/09/21 12:10:01;;;;;;;7.75;3.42;;;;;;;30.82;32.40;99226.41;6046951;23;20017;-93
2023/09/21 12:12:44;;;;;;;7.95;3.83;;;;;;;31.17;31.42;99242.03;6056336;23;20073;-94
2023/09/21 12:15:17;;;;;;;6.38;3.28;;;;;;;31.22;32.00;99224.09;6056031;23;19987;-93
2023/09/21 12:17:44;;;;;;;7.18;3.63;;;;;;;31.42;31.51;99241.00;6053721;23;20015;-94
2023/09/21 12:20:19;;;;;;;9.70;4.18;;;;;;;31.37;31.31;99213.63;6023865;23;20014;-93
2023/09/21 12:22:45;;;;;;;8.00;3.30;;;;;;;31.62;31.70;99238.41;6049927;23;20022;-93
2023/09/21 12:25:18;;;;;;;10.90;3.90;;;;;;;31.45;31.83;99222.72;6020097;23;20012;-95
2023/09/21 12:27:49;;;;;;;12.98;4.07;;;;;;;31.50;31.75;99209.16;6047239;23;20408;-95
2023/09/21 12:30:20;;;;;;;11.13;2.97;;;;;;;31.55;31.59;99230.94;6027200;23;20026;-95
2023/09/21 12:32:56;;;;;;;7.47;3.17;;;;;;;31.47;31.73;99223.09;6050531;23;20007;-94
2023/09/21 12:35:25;;;;;;;7.00;3.35;;;;;;;31.37;31.37;99222.75;6052414;23;19987;-94
2023/09/21 12:38:16;;;;;;;7.25;3.13;;;;;;;31.23;31.93;99225.66;6027500;23;20352;-95